Time;durP1;ratioP1;P1;durP2;ratioP2;P2;SDS_P1;SDS_P2;PMS_P1;PMS_P2;Temp;Humidity;BMP_temperature;BMP_pressure;BME280_temperature;BME280_humidity;BME280_pressure;Samples;Min_cycle;Max_cycle;Signal;HPM_P1;HPM_P2
2022/12/05 00:00:32;;;;;;;3.67;3.05;;;14.40;67.20;;;;;;5125611;28;20027;-68
2022/12/05 00:03:02;;;;;;;4.57;3.17;;;14.40;67.10;;;;;;5125674;28;20012;-68
2022/12/05 00:05:27;;;;;;;3.85;3.40;;;14.40;67.10;;;;;;5125573;28;20071;-68
2022/12/05 00:07:53;;;;;;;3.92;3.33;;;14.40;66.90;;;;;;5125509;28;20315;-68
2022/12/05 00:10:19;;;;;;;3.90;2.80;;;14.50;67.10;;;;;;5125463;28;20030;-68
2022/12/05 00:12:45;;;;;;;3.83;3.17;;;14.40;67.10;;;;;;5125430;28;20016;-67
2022/12/05 00:15:11;;;;;;;3.80;3.40;;;14.40;67.30;;;;;;5125307;28;20090;-68
2022/12/05 00:17:40;;;;;;;3.33;2.70;;;14.40;67.40;;;;;;5125331;28;20023;-67
2022/12/05 00:20:07;;;;;;;3.00;2.75;;;14.40;67.50;;;;;;5125276;28;20015;-69
2022/12/05 00:22:37;;;;;;;4.63;3.58;;;14.40;67.50;;;;;;5125238;28;20007;-68
2022/12/05 00:25:06;;;;;;;4.45;3.33;;;14.40;67.50;;;;;;5125094;28;20022;-67
2022/12/05 00:27:32;;;;;;;3.97;3.35;;;14.40;67.50;;;;;;5124474;28;20332;-67
2022/12/05 00:29:58;;;;;;;3.33;2.85;;;14.40;67.50;;;;;;5124956;28;20039;-68
2022/12/05 00:32:24;;;;;;;3.55;3.00;;;14.40;67.60;;;;;;5125025;28;20315;-67
2022/12/05 00:34:50;;;;;;;3.70;3.28;;;14.40;67.60;;;;;;5124950;28;20035;-67
2022/12/05 00:37:16;;;;;;;3.63;2.95;;;14.40;67.50;;;;;;5124890;28;20034;-68
2022/12/05 00:39:41;;;;;;;4.28;3.33;;;14.40;67.40;;;;;;5124902;28;20402;-68
2022/12/05 00:42:07;;;;;;;3.95;3.10;;;14.40;67.40;;;;;;5124702;28;20437;-67
2022/12/05 00:44:33;;;;;;;4.63;3.40;;;14.40;67.40;;;;;;5124809;28;20348;-67
2022/12/05 00:46:59;;;;;;;3.45;2.97;;;14.40;67.30;;;;;;5124790;28;20031;-69
2022/12/05 00:49:24;;;;;;;4.13;3.05;;;14.40;67.30;;;;;;5124761;28;20041;-67
2022/12/05 00:51:50;;;;;;;3.28;2.53;;;14.40;67.30;;;;;;5124659;28;20034;-68
2022/12/05 00:54:16;;;;;;;4.55;3.22;;;14.40;67.30;;;;;;5124588;28;20026;-67
2022/12/05 00:56:43;;;;;;;3.40;2.90;;;14.40;67.20;;;;;;5124425;28;20027;-68
2022/12/05 00:59:17;;;;;;;3.80;3.08;;;14.40;67.20;;;;;;5124457;28;20018;-68
2022/12/05 01:01:44;;;;;;;3.67;3.15;;;14.50;67.30;;;;;;5124564;28;20028;-68
2022/12/05 01:04:14;;;;;;;3.20;2.90;;;14.40;67.20;;;;;;5106267;28;20269;-68
2022/12/05 01:06:41;;;;;;;3.53;2.95;;;14.40;67.20;;;;;;5124332;28;20015;-68
2022/12/05 01:09:07;;;;;;;3.60;2.80;;;14.40;67.20;;;;;;5124313;28;20031;-69
2022/12/05 01:11:33;;;;;;;3.38;2.60;;;14.40;67.10;;;;;;5124274;28;20028;-68
2022/12/05 01:13:59;;;;;;;3.58;3.10;;;14.50;67.10;;;;;;5124260;28;20020;-68
2022/12/05 01:16:33;;;;;;;4.25;3.35;;;14.40;67.00;;;;;;5124021;28;20102;-69
2022/12/05 01:19:03;;;;;;;3.40;2.90;;;14.40;66.90;;;;;;5124131;28;20020;-69
2022/12/05 01:21:29;;;;;;;3.05;2.60;;;14.40;66.90;;;;;;5105832;28;20016;-68
2022/12/05 01:23:55;;;;;;;3.30;3.00;;;14.40;67.00;;;;;;5123960;28;20315;-66
2022/12/05 01:26:21;;;;;;;3.42;3.13;;;14.40;67.10;;;;;;5123943;28;20335;-68
2022/12/05 01:28:48;;;;;;;3.35;3.00;;;14.40;67.30;;;;;;5123872;28;20026;-68
2022/12/05 01:31:29;;;;;;;3.63;2.88;;;14.40;67.30;;;;;;5123893;28;20027;-67
2022/12/05 01:33:57;;;;;;;3.60;2.92;;;14.40;67.30;;;;;;5123761;28;20242;-68
2022/12/05 01:36:24;;;;;;;3.20;2.90;;;14.40;67.40;;;;;;5105449;28;20196;-68
2022/12/05 01:38:51;;;;;;;3.72;3.03;;;14.40;67.40;;;;;;5123752;28;20015;-68
2022/12/05 01:41:22;;;;;;;3.08;2.70;;;14.40;67.50;;;;;;5123958;28;20026;-68
2022/12/05 01:44:11;;;;;;;3.40;2.83;;;14.40;67.30;;;;;;5104833;28;20047;-68
2022/12/05 01:46:51;;;;;;;3.10;2.72;;;14.40;67.30;;;;;;5085260;28;20031;-67
2022/12/05 01:49:31;;;;;;;5.90;3.45;;;14.40;67.50;;;;;;5123537;28;20012;-68
2022/12/05 01:52:08;;;;;;;3.17;2.85;;;14.40;67.50;;;;;;5123457;28;20026;-68
2022/12/05 01:54:35;;;;;;;3.00;2.67;;;14.40;67.30;;;;;;5105248;28;20039;-69
2022/12/05 01:57:07;;;;;;;3.63;2.60;;;14.40;67.30;;;;;;5123272;28;20223;-68
2022/12/05 01:59:37;;;;;;;3.53;3.03;;;14.40;67.30;;;;;;5123348;28;20075;-68
2022/12/05 02:02:04;;;;;;;2.67;2.47;;;14.40;67.20;;;;;;5123262;28;20220;-68
2022/12/05 02:04:31;;;;;;;3.75;3.00;;;14.40;67.20;;;;;;5123247;28;20027;-69
2022/12/05 02:06:57;;;;;;;3.88;3.08;;;14.40;67.20;;;;;;5123117;28;20050;-67
2022/12/05 02:09:23;;;;;;;3.65;3.08;;;14.40;67.10;;;;;;5123102;28;20043;-67
2022/12/05 02:11:59;;;;;;;3.10;2.78;;;14.40;67.10;;;;;;5123027;28;20015;-68
2022/12/05 02:14:46;;;;;;;3.72;3.00;;;14.40;67.00;;;;;;5123141;28;20087;-67
2022/12/05 02:17:16;;;;;;;3.42;2.85;;;14.40;66.90;;;;;;5104829;28;20054;-67
2022/12/05 02:20:01;;;;;;;3.58;2.75;;;14.40;66.90;;;;;;5122972;28;20394;-67
2022/12/05 02:22:29;;;;;;;3.42;3.08;;;14.50;66.90;;;;;;5123026;28;20012;-68
2022/12/05 02:25:33;;;;;;;3.78;3.15;;;14.40;66.80;;;;;;5122876;28;20015;-67
2022/12/05 02:28:08;;;;;;;3.90;3.40;;;14.40;66.80;;;;;;5122903;28;20137;-68
2022/12/05 02:31:07;;;;;;;4.00;2.90;;;14.40;66.80;;;;;;5122869;28;20022;-67
2022/12/05 02:33:38;;;;;;;;;;;14.40;66.80;;;;;;5122683;28;20028;-68
2022/12/05 02:36:11;;;;;;;3.17;2.67;;;14.40;66.80;;;;;;5122740;28;19903;-67
2022/12/05 02:38:52;;;;;;;3.28;2.75;;;14.40;67.00;;;;;;5122788;28;20073;-67
2022/12/05 02:41:32;;;;;;;3.60;3.13;;;14.40;67.10;;;;;;5122815;28;20083;-66
2022/12/05 02:44:13;;;;;;;2.60;2.40;;;14.40;67.20;;;;;;5122621;28;20043;-68
2022/12/05 02:46:40;;;;;;;3.47;2.88;;;14.40;67.30;;;;;;5122639;28;20149;-67
2022/12/05 02:49:10;;;;;;;3.20;2.90;;;14.40;67.30;;;;;;5122661;28;20021;-67
2022/12/05 02:51:47;;;;;;;3.35;2.97;;;14.40;67.30;;;;;;5122182;28;20491;-68
2022/12/05 02:54:22;;;;;;;3.40;3.10;;;14.40;67.40;;;;;;5122606;28;20023;-68
2022/12/05 02:56:49;;;;;;;3.40;2.85;;;14.40;67.40;;;;;;5122527;28;20076;-69
2022/12/05 02:59:15;;;;;;;3.20;2.80;;;14.40;67.50;;;;;;5104339;28;20022;-68
2022/12/05 03:01:46;;;;;;;3.40;2.83;;;14.40;67.60;;;;;;5122506;28;20043;-68
2022/12/05 03:04:13;;;;;;;3.15;2.78;;;14.40;68.20;;;;;;5122511;28;20026;-68
2022/12/05 03:06:46;;;;;;;4.07;2.90;;;14.40;67.50;;;;;;5122482;28;20363;-67
2022/12/05 03:09:20;;;;;;;2.83;2.42;;;14.40;67.40;;;;;;5122451;28;20087;-68
2022/12/05 03:11:52;;;;;;;2.95;2.58;;;14.40;67.30;;;;;;5122367;28;20095;-66
2022/12/05 03:14:24;;;;;;;3.13;2.75;;;14.40;67.30;;;;;;5122360;28;20026;-68
2022/12/05 03:16:53;;;;;;;3.10;2.78;;;14.40;67.30;;;;;;5122294;28;20481;-68
2022/12/05 03:19:31;;;;;;;3.03;2.72;;;14.40;67.20;;;;;;5104196;28;20016;-67
2022/12/05 03:22:15;;;;;;;3.03;2.72;;;14.40;67.20;;;;;;5122297;28;20012;-68
2022/12/05 03:24:41;;;;;;;3.30;2.90;;;14.40;67.10;;;;;;5122241;28;20020;-67
2022/12/05 03:27:32;;;;;;;3.13;2.83;;;14.40;67.20;;;;;;5122232;28;20020;-68
2022/12/05 03:30:03;;;;;;;3.30;2.90;;;14.40;67.10;;;;;;5122240;28;20488;-68
2022/12/05 03:32:37;;;;;;;3.13;2.72;;;14.50;67.20;;;;;;5122223;28;20023;-68
2022/12/05 03:35:08;;;;;;;4.28;3.20;;;14.50;67.10;;;;;;5122160;28;20023;-67
2022/12/05 03:37:40;;;;;;;3.35;2.78;;;14.50;67.00;;;;;;5122059;28;20057;-67
2022/12/05 03:40:32;;;;;;;3.20;2.47;;;14.50;66.90;;;;;;5122059;28;20070;-67
2022/12/05 03:43:17;;;;;;;4.32;3.20;;;14.50;66.90;;;;;;5121890;28;20035;-68
2022/12/05 03:46:50;;;;;;;3.33;3.03;;;14.40;66.90;;;;;;5122090;28;20043;-67
2022/12/05 03:49:46;;;;;;;2.92;2.35;;;14.50;66.80;;;;;;5029415;28;20041;-68
2022/12/05 03:52:12;;;;;;;3.17;2.80;;;14.40;66.70;;;;;;5122003;28;20020;-68
2022/12/05 03:54:50;;;;;;;3.13;2.65;;;14.40;66.90;;;;;;5121981;28;20027;-68
2022/12/05 03:57:25;;;;;;;3.40;3.00;;;14.40;67.10;;;;;;5121882;28;20046;-68
2022/12/05 04:00:05;;;;;;;3.92;2.80;;;14.40;67.10;;;;;;5121962;28;20072;-67
2022/12/05 04:02:44;;;;;;;3.03;2.72;;;14.40;67.10;;;;;;5103601;28;20015;-69
2022/12/05 04:05:15;;;;;;;3.92;3.10;;;14.40;67.10;;;;;;5125480;28;20034;-68
2022/12/05 04:07:47;;;;;;;3.58;2.97;;;14.40;67.20;;;;;;5125465;28;20012;-69
2022/12/05 04:10:19;;;;;;;3.03;2.75;;;14.40;67.20;;;;;;5125548;28;20020;-67
2022/12/05 04:12:47;;;;;;;3.58;2.72;;;14.40;67.20;;;;;;5125472;28;20038;-68
2022/12/05 04:15:21;;;;;;;3.17;2.63;;;14.40;67.20;;;;;;5125298;28;20031;-68
2022/12/05 04:17:58;;;;;;;3.53;2.75;;;14.40;67.30;;;;;;5125352;28;20097;-68
2022/12/05 04:23:22;;;;;;;3.13;2.83;;;14.40;67.20;;;;;;5125300;28;20037;-67
2022/12/05 04:26:00;;;;;;;3.85;2.92;;;14.40;67.20;;;;;;5125157;28;20095;-67
2022/12/05 04:28:37;;;;;;;3.30;3.00;;;14.40;67.10;;;;;;5125141;28;20050;-67
2022/12/05 04:31:08;;;;;;;3.58;2.95;;;14.40;67.00;;;;;;5125092;28;20023;-68
2022/12/05 04:33:45;;;;;;;3.25;2.50;;;14.40;67.00;;;;;;5125025;28;20023;-67
2022/12/05 04:36:10;;;;;;;3.22;2.58;;;14.40;67.00;;;;;;5124945;28;20196;-66
2022/12/05 04:38:42;;;;;;;3.00;2.70;;;14.40;66.90;;;;;;5124907;28;20042;-67
2022/12/05 04:41:18;;;;;;;3.17;2.72;;;14.50;67.00;;;;;;5124862;28;20359;-66
2022/12/05 04:43:46;;;;;;;3.15;2.40;;;14.50;67.00;;;;;;5124655;28;20047;-67
2022/12/05 04:46:14;;;;;;;3.22;2.88;;;14.40;66.90;;;;;;5124811;28;20019;-68
2022/12/05 04:48:44;;;;;;;2.88;2.55;;;14.40;66.80;;;;;;5124748;28;20030;-67
2022/12/05 04:51:16;;;;;;;3.65;2.78;;;14.40;66.80;;;;;;5124592;28;20312;-68
2022/12/05 04:53:44;;;;;;;3.85;3.00;;;14.40;66.80;;;;;;5124557;28;20034;-67
2022/12/05 04:56:12;;;;;;;3.05;2.75;;;14.40;66.90;;;;;;5124469;28;20020;-67
2022/12/05 04:58:37;;;;;;;3.55;2.78;;;14.40;66.80;;;;;;5124401;28;20039;-68
2022/12/05 05:01:26;;;;;;;2.92;2.67;;;14.40;66.80;;;;;;5124472;28;20050;-67
2022/12/05 05:04:06;;;;;;;2.97;2.65;;;14.40;66.70;;;;;;5124330;28;20084;-69
2022/12/05 05:06:32;;;;;;;3.17;2.88;;;14.50;66.80;;;;;;5124292;28;20024;-69
2022/12/05 05:08:58;;;;;;;3.00;2.70;;;14.40;66.90;;;;;;5124291;28;20066;-69
2022/12/05 05:11:30;;;;;;;3.22;2.67;;;14.40;67.00;;;;;;5124247;28;20055;-69
2022/12/05 05:13:55;;;;;;;2.78;2.58;;;14.40;67.20;;;;;;5123891;28;20353;-69
2022/12/05 05:16:34;;;;;;;2.80;2.42;;;14.40;67.20;;;;;;5124093;28;20023;-69
2022/12/05 05:19:00;;;;;;;3.00;2.40;;;14.40;67.30;;;;;;5124133;28;20060;-68
2022/12/05 05:21:32;;;;;;;3.35;2.80;;;14.40;67.30;;;;;;5123965;28;20016;-68
2022/12/05 05:23:58;;;;;;;2.97;2.60;;;14.40;67.30;;;;;;5123898;28;20026;-68
2022/12/05 05:26:25;;;;;;;3.17;2.72;;;14.40;67.30;;;;;;5123918;28;20024;-67
2022/12/05 05:28:51;;;;;;;3.28;2.97;;;14.40;67.30;;;;;;5123821;28;20189;-68
2022/12/05 05:31:18;;;;;;;2.75;2.40;;;14.40;67.30;;;;;;5123771;28;20199;-68
2022/12/05 05:33:49;;;;;;;3.53;2.90;;;14.40;67.40;;;;;;5123759;28;20041;-68
2022/12/05 05:36:15;;;;;;;3.20;2.53;;;14.40;67.30;;;;;;5123682;28;20038;-67
2022/12/05 05:38:47;;;;;;;4.30;3.15;;;14.40;67.20;;;;;;5123623;28;20015;-68
2022/12/05 05:41:27;;;;;;;3.03;2.63;;;14.40;67.10;;;;;;5123685;28;20199;-69
2022/12/05 05:43:53;;;;;;;3.63;3.15;;;14.40;67.10;;;;;;5123383;28;20047;-67
2022/12/05 05:46:22;;;;;;;3.20;2.90;;;14.40;67.10;;;;;;5123532;28;20028;-69
2022/12/05 05:48:48;;;;;;;2.80;2.45;;;14.40;67.10;;;;;;5123473;28;20016;-68
2022/12/05 05:51:16;;;;;;;3.63;2.90;;;14.40;67.20;;;;;;5123434;28;20047;-67
2022/12/05 05:53:42;;;;;;;3.28;2.97;;;14.40;67.00;;;;;;5123332;28;20020;-67
2022/12/05 05:56:11;;;;;;;3.10;2.80;;;14.40;67.00;;;;;;5123252;28;20024;-67
2022/12/05 05:58:38;;;;;;;3.15;2.85;;;14.40;67.00;;;;;;5123265;28;20037;-68
2022/12/05 06:01:05;;;;;;;3.05;2.70;;;14.40;66.90;;;;;;5123183;28;20020;-68
2022/12/05 06:03:30;;;;;;;3.05;2.75;;;14.40;66.80;;;;;;5123195;28;20226;-67
2022/12/05 06:06:02;;;;;;;3.30;2.70;;;14.40;66.80;;;;;;5123129;28;20038;-67
2022/12/05 06:08:33;;;;;;;3.25;2.55;;;14.50;66.80;;;;;;5123105;28;20015;-68
2022/12/05 06:11:03;;;;;;;2.50;2.28;;;14.50;66.80;;;;;;5123038;28;20311;-68
2022/12/05 06:13:29;;;;;;;3.17;2.88;;;14.40;66.80;;;;;;5123055;28;20094;-68
2022/12/05 06:15:54;;;;;;;4.55;2.55;;;14.50;66.80;;;;;;5122881;28;20032;-68
2022/12/05 06:18:20;;;;;;;2.78;2.40;;;14.50;66.70;;;;;;5122901;28;20024;-67
2022/12/05 06:20:56;;;;;;;3.58;2.35;;;14.40;66.70;;;;;;5122883;28;20315;-68
2022/12/05 06:23:23;;;;;;;2.80;2.47;;;14.40;66.60;;;;;;5122858;28;20076;-68
2022/12/05 06:25:52;;;;;;;4.32;2.80;;;14.40;66.80;;;;;;5122123;28;20306;-68
2022/12/05 06:28:19;;;;;;;2.88;2.50;;;14.40;67.00;;;;;;5122739;28;20026;-68
2022/12/05 06:30:45;;;;;;;4.38;2.70;;;14.40;67.00;;;;;;5122728;28;20086;-67
2022/12/05 06:33:12;;;;;;;4.03;3.13;;;14.40;67.00;;;;;;5122712;28;20019;-67
2022/12/05 06:35:37;;;;;;;2.70;2.50;;;14.40;67.10;;;;;;5122533;28;20020;-67
2022/12/05 06:38:04;;;;;;;3.28;2.78;;;14.40;67.20;;;;;;5122707;28;20015;-68
2022/12/05 06:40:30;;;;;;;3.13;2.83;;;14.40;67.20;;;;;;5122628;28;20024;-66
2022/12/05 06:42:56;;;;;;;2.90;2.63;;;14.40;67.20;;;;;;5122020;28;20118;-67
2022/12/05 06:45:22;;;;;;;3.00;2.67;;;14.40;67.30;;;;;;5122623;28;20315;-68
2022/12/05 06:47:49;;;;;;;3.17;2.60;;;14.40;67.40;;;;;;5122564;28;20020;-69
2022/12/05 06:50:15;;;;;;;3.28;2.97;;;14.40;67.20;;;;;;5122470;28;20027;-68
2022/12/05 06:52:41;;;;;;;3.20;2.90;;;14.40;67.10;;;;;;5122501;28;20023;-67
2022/12/05 06:55:07;;;;;;;3.08;2.53;;;14.40;67.10;;;;;;5122447;28;20070;-67
2022/12/05 06:57:33;;;;;;;2.60;2.40;;;14.40;67.10;;;;;;5122402;28;20020;-68
2022/12/05 07:02:42;;;;;;;3.22;2.78;;;14.40;67.00;;;;;;5122393;28;20030;-67
2022/12/05 07:05:09;;;;;;;4.03;3.20;;;14.40;67.00;;;;;;5122357;28;20351;-68
2022/12/05 07:07:35;;;;;;;3.42;2.85;;;14.40;66.90;;;;;;5122414;28;20024;-68
2022/12/05 07:10:00;;;;;;;3.45;2.88;;;14.40;66.90;;;;;;5122326;28;20027;-68
2022/12/05 07:12:26;;;;;;;2.50;2.25;;;14.50;66.90;;;;;;5122329;28;20032;-68
2022/12/05 07:14:52;;;;;;;3.63;2.78;;;14.40;66.80;;;;;;5122301;28;20015;-67
2022/12/05 07:17:19;;;;;;;3.25;2.47;;;14.40;66.80;;;;;;5122184;28;20052;-68
2022/12/05 07:19:49;;;;;;;2.83;2.53;;;14.50;66.90;;;;;;5122177;28;20035;-68
2022/12/05 07:22:16;;;;;;;3.67;2.90;;;14.50;66.90;;;;;;5122260;28;20208;-68
2022/12/05 07:24:43;;;;;;;3.58;2.85;;;14.40;66.80;;;;;;5122207;28;20092;-68
2022/12/05 07:27:09;;;;;;;3.22;2.85;;;14.40;66.80;;;;;;5122167;28;20028;-68
2022/12/05 07:29:35;;;;;;;2.72;2.30;;;14.40;66.80;;;;;;5122144;28;20065;-67
2022/12/05 07:32:01;;;;;;;3.38;2.90;;;14.50;66.80;;;;;;5122030;28;20023;-68
2022/12/05 07:34:26;;;;;;;2.92;2.42;;;14.40;66.70;;;;;;5122023;28;20069;-66
2022/12/05 07:36:52;;;;;;;3.35;3.05;;;14.50;66.80;;;;;;5122250;28;20040;-67
2022/12/05 07:39:18;;;;;;;3.22;2.65;;;14.50;66.80;;;;;;5125969;28;20031;-68
2022/12/05 07:41:44;;;;;;;3.30;2.55;;;14.40;66.80;;;;;;5125819;28;20043;-68
2022/12/05 07:44:11;;;;;;;3.42;2.78;;;14.40;66.90;;;;;;5125742;28;20042;-68
2022/12/05 07:46:37;;;;;;;3.00;2.60;;;14.40;67.10;;;;;;5125760;28;20043;-68
2022/12/05 07:49:03;;;;;;;3.05;2.75;;;14.40;67.10;;;;;;5125774;28;20308;-68
2022/12/05 07:51:29;;;;;;;4.35;2.75;;;14.40;67.10;;;;;;5107444;28;20214;-68
2022/12/05 07:53:57;;;;;;;2.85;2.55;;;14.40;67.20;;;;;;5125654;28;20023;-68
2022/12/05 07:56:23;;;;;;;2.90;2.60;;;14.40;67.20;;;;;;5125604;28;20031;-67
2022/12/05 07:58:49;;;;;;;3.13;2.83;;;14.40;67.20;;;;;;5125572;28;20200;-68
2022/12/05 08:01:25;;;;;;;3.30;3.00;;;14.40;67.20;;;;;;5125622;28;20035;-67
2022/12/05 08:03:55;;;;;;;2.78;2.50;;;14.40;67.20;;;;;;5125524;28;20020;-69
2022/12/05 08:06:24;;;;;;;4.20;2.65;;;14.40;67.30;;;;;;5125466;28;20015;-68
2022/12/05 08:08:50;;;;;;;2.97;2.67;;;14.40;67.30;;;;;;5107257;28;20068;-68
2022/12/05 08:11:22;;;;;;;2.83;2.53;;;14.40;67.30;;;;;;5125448;28;20023;-68
2022/12/05 08:13:49;;;;;;;2.72;2.50;;;14.40;67.20;;;;;;5125378;28;20244;-67
2022/12/05 08:16:18;;;;;;;3.10;2.80;;;14.40;67.10;;;;;;5125222;28;20019;-68
2022/12/05 08:18:44;;;;;;;2.85;2.65;;;14.40;67.00;;;;;;5125290;28;20123;-68
2022/12/05 08:21:16;;;;;;;3.08;2.50;;;14.40;67.00;;;;;;5125191;28;20038;-68
2022/12/05 08:23:42;;;;;;;3.08;2.63;;;14.40;67.00;;;;;;5125109;28;20052;-68
2022/12/05 08:26:12;;;;;;;3.28;2.92;;;14.50;67.10;;;;;;5125062;28;20038;-68
2022/12/05 08:28:38;;;;;;;2.92;2.63;;;14.40;66.90;;;;;;5124990;28;20035;-68
2022/12/05 08:31:06;;;;;;;2.92;2.47;;;14.40;66.90;;;;;;5124957;28;20027;-68
2022/12/05 08:33:33;;;;;;;3.00;2.63;;;14.40;66.80;;;;;;5124925;28;20019;-68
2022/12/05 08:36:04;;;;;;;2.75;2.53;;;14.50;66.80;;;;;;5106527;28;20076;-67
2022/12/05 08:38:30;;;;;;;3.55;3.13;;;14.50;66.70;;;;;;5124739;28;20011;-68
2022/12/05 08:40:59;;;;;;;3.47;2.80;;;14.50;66.70;;;;;;5124705;28;20078;-68
2022/12/05 08:43:25;;;;;;;3.10;2.80;;;14.50;66.70;;;;;;5124411;28;20040;-67
2022/12/05 08:45:51;;;;;;;2.80;2.55;;;14.50;66.70;;;;;;5124667;28;20119;-68
2022/12/05 08:48:17;;;;;;;2.97;2.67;;;14.50;66.70;;;;;;5124490;28;20015;-68
2022/12/05 08:50:43;;;;;;;3.13;2.80;;;14.50;66.70;;;;;;5124063;28;20034;-66
2022/12/05 08:53:09;;;;;;;3.20;2.90;;;14.50;66.60;;;;;;5140522;27;20019;-67
2022/12/05 08:55:36;;;;;;;3.20;2.88;;;14.50;66.60;;;;;;5124441;28;20035;-69
2022/12/05 08:58:02;;;;;;;3.08;2.78;;;14.50;66.60;;;;;;5106256;28;20019;-68
2022/12/05 09:00:28;;;;;;;3.55;2.90;;;14.50;66.60;;;;;;5124413;28;20016;-68
2022/12/05 09:02:54;;;;;;;3.03;2.72;;;14.50;66.70;;;;;;5124279;28;20069;-67
2022/12/05 09:05:21;;;;;;;3.28;2.90;;;14.50;66.80;;;;;;5124278;28;20011;-68
2022/12/05 09:07:47;;;;;;;2.65;2.45;;;14.50;67.00;;;;;;5106056;28;20087;-68
2022/12/05 09:10:13;;;;;;;3.17;2.67;;;14.40;66.90;;;;;;5124239;28;20311;-69
2022/12/05 09:12:39;;;;;;;4.72;2.88;;;14.50;67.00;;;;;;5124135;28;20092;-68
2022/12/05 09:15:06;;;;;;;3.03;2.72;;;14.40;67.00;;;;;;5124121;28;20086;-68
2022/12/05 09:17:33;;;;;;;3.47;2.60;;;14.40;67.10;;;;;;5123972;28;20031;-68
2022/12/05 09:19:59;;;;;;;3.00;2.50;;;14.40;67.20;;;;;;5123993;28;20020;-66
2022/12/05 09:22:25;;;;;;;3.72;2.50;;;14.40;67.20;;;;;;5124021;28;20039;-68
2022/12/05 09:24:51;;;;;;;2.83;2.42;;;14.40;67.10;;;;;;5123953;28;20020;-67
2022/12/05 09:27:17;;;;;;;3.10;2.45;;;14.40;67.00;;;;;;5123932;28;20024;-69
2022/12/05 09:29:43;;;;;;;3.33;3.00;;;14.40;67.00;;;;;;5123884;28;20051;-67
2022/12/05 09:32:09;;;;;;;3.20;2.75;;;14.40;66.90;;;;;;5123815;28;20358;-68
2022/12/05 09:34:36;;;;;;;3.15;2.63;;;14.40;66.90;;;;;;5123725;28;20015;-69
2022/12/05 09:37:04;;;;;;;3.22;2.70;;;14.50;66.90;;;;;;5105456;28;20364;-68
2022/12/05 09:39:30;;;;;;;2.73;2.37;;;14.50;66.90;;;;;;5123694;28;20014;-67
2022/12/05 09:42:12;;;;;;;2.67;2.40;;;14.50;66.90;;;;;;5105375;28;20286;-68
2022/12/05 09:44:50;;;;;;;3.05;2.63;;;14.50;66.90;;;;;;5123037;28;20057;-67
2022/12/05 09:47:16;;;;;;;2.33;2.10;;;14.50;66.80;;;;;;5123576;28;20020;-68
2022/12/05 09:49:52;;;;;;;3.35;2.78;;;14.50;66.80;;;;;;5123482;28;20026;-68
2022/12/05 09:52:25;;;;;;;2.70;2.50;;;14.40;66.80;;;;;;5123432;28;20204;-68
2022/12/05 09:54:52;;;;;;;2.25;2.05;;;14.50;66.80;;;;;;5123382;28;20056;-67
2022/12/05 09:57:34;;;;;;;3.53;3.03;;;14.50;66.80;;;;;;5123173;28;20016;-69
2022/12/05 10:00:02;;;;;;;2.80;2.47;;;14.50;66.80;;;;;;5123016;28;20023;-67
2022/12/05 10:02:41;;;;;;;3.20;2.50;;;14.50;66.90;;;;;;5122560;28;20057;-68
2022/12/05 10:05:37;;;;;;;2.80;2.55;;;14.50;66.80;;;;;;5123220;28;20251;-68
2022/12/05 10:08:22;;;;;;;3.63;2.92;;;14.50;66.70;;;;;;5119056;28;20031;-68
2022/12/05 10:11:12;;;;;;;3.45;3.15;;;14.50;66.70;;;;;;5123071;28;20071;-68
2022/12/05 10:14:09;;;;;;;3.05;2.60;;;14.50;66.60;;;;;;5111046;28;20257;-68
2022/12/05 10:16:55;;;;;;;3.22;2.90;;;14.50;66.50;;;;;;5122939;28;20020;-67
2022/12/05 10:19:33;;;;;;;4.13;2.90;;;14.50;66.70;;;;;;5123021;28;20036;-67
2022/12/05 10:22:08;;;;;;;3.85;3.47;;;14.50;66.90;;;;;;5122966;28;20022;-66
2022/12/05 10:24:51;;;;;;;2.95;2.40;;;14.50;67.00;;;;;;5122973;28;20098;-68
2022/12/05 10:27:40;;;;;;;3.42;2.97;;;14.40;67.00;;;;;;5122848;28;20189;-68
2022/12/05 10:30:12;;;;;;;;;;;14.50;67.30;;;;;;5123280;28;20073;-66
2022/12/05 10:32:52;;;;;;;2.75;2.45;;;14.40;67.00;;;;;;5122834;28;19900;-68
2022/12/05 10:35:24;;;;;;;2.78;2.50;;;14.40;67.20;;;;;;5122730;28;20027;-68
2022/12/05 10:38:01;;;;;;;3.47;3.17;;;14.50;67.20;;;;;;5122739;28;20034;-67
2022/12/05 10:40:34;;;;;;;3.33;3.03;;;14.40;67.00;;;;;;5122746;28;20081;-68
2022/12/05 10:43:00;;;;;;;3.00;2.67;;;14.50;67.10;;;;;;5122406;28;20043;-68
2022/12/05 10:45:26;;;;;;;3.10;2.80;;;14.50;67.20;;;;;;5122638;28;20035;-67
2022/12/05 10:47:56;;;;;;;2.80;2.50;;;14.50;67.80;;;;;;5122566;28;20016;-68
2022/12/05 10:50:32;;;;;;;2.75;2.55;;;14.50;67.10;;;;;;5122523;28;20024;-68
2022/12/05 10:53:01;;;;;;;2.72;2.53;;;14.50;67.10;;;;;;5122609;28;20087;-68
2022/12/05 10:55:41;;;;;;;3.15;2.85;;;14.50;67.10;;;;;;5122371;28;20331;-67
2022/12/05 10:58:12;;;;;;;3.08;2.75;;;14.50;67.00;;;;;;5122501;28;20052;-68
2022/12/05 11:00:43;;;;;;;2.97;2.65;;;14.50;67.00;;;;;;5122403;28;20015;-69
2022/12/05 11:03:21;;;;;;;2.80;2.50;;;14.50;66.90;;;;;;5122445;28;20083;-68
2022/12/05 11:05:49;;;;;;;4.10;3.35;;;14.50;66.80;;;;;;5122421;28;20133;-68
2022/12/05 11:08:27;;;;;;;3.13;2.83;;;14.50;66.90;;;;;;5122459;28;20016;-67
2022/12/05 11:11:16;;;;;;;2.70;2.43;;;14.50;66.80;;;;;;5122442;28;20069;-68
2022/12/05 11:14:05;;;;;;;2.80;2.40;;;14.50;66.80;;;;;;5125877;28;20035;-66
2022/12/05 11:16:34;;;;;;;3.00;2.40;;;14.50;66.80;;;;;;5126336;28;20523;-67
2022/12/05 11:19:32;;;;;;;;;;;14.50;66.90;;;;;;5109092;28;20023;-68
2022/12/05 11:21:58;;;;;;;2.90;2.60;;;14.50;66.90;;;;;;5064111;28;20335;-67
2022/12/05 11:24:28;;;;;;;3.50;2.90;;;14.50;67.10;;;;;;5126403;28;20020;-68
2022/12/05 11:26:54;;;;;;;3.17;2.83;;;14.50;67.00;;;;;;5126299;28;20023;-68
2022/12/05 11:29:37;;;;;;;2.95;2.58;;;14.50;66.90;;;;;;5126244;28;20062;-68
2022/12/05 11:32:05;;;;;;;2.80;2.60;;;14.50;66.90;;;;;;5126071;28;20059;-68
2022/12/05 11:34:42;;;;;;;2.63;2.42;;;14.50;66.90;;;;;;5126154;28;20207;-67
2022/12/05 11:37:17;;;;;;;3.05;2.65;;;14.50;66.80;;;;;;5126078;28;20034;-68
2022/12/05 11:39:43;;;;;;;2.92;2.63;;;14.50;66.70;;;;;;5126127;28;20315;-67
2022/12/05 11:42:54;;;;;;;2.97;2.67;;;14.50;66.70;;;;;;5126003;28;20109;-68
2022/12/05 11:45:45;;;;;;;3.05;2.75;;;14.50;66.70;;;;;;5126059;28;20104;-69
2022/12/05 11:48:32;;;;;;;3.05;2.70;;;14.50;66.80;;;;;;5125937;28;20177;-67
2022/12/05 11:51:29;;;;;;;2.80;2.55;;;14.50;66.80;;;;;;5125987;28;20034;-68
2022/12/05 11:54:04;;;;;;;3.30;2.55;;;14.50;66.80;;;;;;5125913;28;20023;-67
2022/12/05 11:56:40;;;;;;;2.95;2.65;;;14.50;66.90;;;;;;5125770;28;20020;-68
2022/12/05 11:59:27;;;;;;;3.08;2.80;;;14.50;66.90;;;;;;5107491;28;20015;-69
2022/12/05 12:02:14;;;;;;;3.72;3.33;;;14.50;66.90;;;;;;5125713;28;20064;-68
2022/12/05 12:04:45;;;;;;;3.10;2.78;;;14.50;67.10;;;;;;5125671;28;20015;-68
2022/12/05 12:07:58;;;;;;;3.25;2.92;;;14.50;67.10;;;;;;5125664;28;20023;-68
2022/12/05 12:10:36;;;;;;;3.03;2.70;;;14.50;67.00;;;;;;5088869;28;20101;-68
2022/12/05 12:13:04;;;;;;;3.00;2.70;;;14.50;67.10;;;;;;5125512;28;20050;-69
2022/12/05 12:15:40;;;;;;;3.30;2.75;;;14.50;67.10;;;;;;5125372;28;20065;-68
2022/12/05 12:18:24;;;;;;;3.28;2.97;;;14.50;67.20;;;;;;5125448;28;20016;-68
2022/12/05 12:20:59;;;;;;;3.05;2.75;;;14.40;67.20;;;;;;5125388;28;20043;-68
2022/12/05 12:23:24;;;;;;;2.67;2.40;;;14.40;67.20;;;;;;5124569;28;20015;-67
2022/12/05 12:26:11;;;;;;;3.00;2.67;;;14.40;67.30;;;;;;5124881;28;20328;-67
2022/12/05 12:28:45;;;;;;;3.13;2.80;;;14.50;67.30;;;;;;5125195;28;20011;-68
2022/12/05 12:31:48;;;;;;;3.30;2.58;;;14.40;67.10;;;;;;5125176;28;20019;-67
2022/12/05 12:34:17;;;;;;;3.65;2.80;;;14.50;67.10;;;;;;5107044;28;20023;-67
2022/12/05 12:36:51;;;;;;;2.95;2.65;;;14.50;67.10;;;;;;5124935;28;20239;-68
2022/12/05 12:39:20;;;;;;;4.65;2.42;;;14.50;67.10;;;;;;5125014;28;20019;-68
2022/12/05 12:42:12;;;;;;;2.75;2.55;;;14.50;67.00;;;;;;5124973;28;20050;-68
2022/12/05 12:44:44;;;;;;;3.47;2.88;;;14.50;66.90;;;;;;5124775;28;20254;-68
2022/12/05 12:47:27;;;;;;;2.70;2.50;;;14.50;67.00;;;;;;5124790;28;20035;-67
2022/12/05 12:50:10;;;;;;;3.92;2.90;;;14.50;66.90;;;;;;5124822;28;20023;-68
2022/12/05 12:52:59;;;;;;;2.58;2.38;;;14.50;66.90;;;;;;5124734;28;20019;-68
2022/12/05 12:55:31;;;;;;;3.10;2.80;;;14.50;66.70;;;;;;5114164;28;20036;-67
2022/12/05 13:10:27;;;;;;;3.10;2.80;;;14.50;66.20;;;;;;5140551;27;20445;-68
2022/12/05 13:12:56;;;;;;;2.88;2.67;;;14.70;66.00;;;;;;5140409;28;20024;-69
2022/12/05 13:15:33;;;;;;;3.30;2.97;;;14.60;66.70;;;;;;5140268;28;20180;-68
2022/12/05 13:18:02;;;;;;;3.13;2.83;;;14.50;66.80;;;;;;5122053;28;20222;-69
2022/12/05 13:20:31;;;;;;;3.45;2.88;;;14.50;66.80;;;;;;5140262;28;20086;-69
2022/12/05 13:22:58;;;;;;;3.47;2.85;;;14.50;66.90;;;;;;5140172;28;20191;-67
2022/12/05 13:25:29;;;;;;;3.17;2.80;;;14.50;67.00;;;;;;5140144;28;20012;-68
2022/12/05 13:28:01;;;;;;;3.35;3.05;;;14.50;67.10;;;;;;5140115;28;20087;-69
2022/12/05 13:30:27;;;;;;;3.00;2.70;;;14.50;67.10;;;;;;5140056;28;20381;-68